createdAt,value
2019-06-10T00:02:24.367Z,3.47
2019-06-10T00:04:53.939Z,4.05
2019-06-10T00:07:23.269Z,3.00
2019-06-10T00:09:52.569Z,2.90
2019-06-10T00:12:21.893Z,2.52
2019-06-10T00:14:51.254Z,2.80
2019-06-10T00:17:21.376Z,3.22
2019-06-10T00:19:51.234Z,2.95
2019-06-10T00:22:21.538Z,2.87
2019-06-10T00:24:52.190Z,3.22
2019-06-10T00:27:21.764Z,2.75
2019-06-10T00:29:51.376Z,2.12
2019-06-10T00:32:21.542Z,3.62
2019-06-10T00:34:51.093Z,3.05
2019-06-10T00:37:21.159Z,2.83
2019-06-10T00:39:51.226Z,3.10
2019-06-10T00:42:21.614Z,3.50
2019-06-10T00:44:51.072Z,2.75
2019-06-10T00:47:21.489Z,3.00
2019-06-10T00:49:51.430Z,2.30
2019-06-10T00:52:21.372Z,4.08
2019-06-10T00:54:51.945Z,3.12
2019-06-10T00:57:21.314Z,2.22
2019-06-10T00:59:50.845Z,2.45
2019-06-10T01:02:21.332Z,2.87
2019-06-10T01:04:52.140Z,3.25
2019-06-10T01:07:21.930Z,3.85
2019-06-10T01:09:51.703Z,2.77
2019-06-10T01:12:21.361Z,3.22
2019-06-10T01:14:51.728Z,2.77
2019-06-10T01:17:21.369Z,2.27
2019-06-10T01:20:16.143Z,2.45
2019-06-10T01:22:46.173Z,2.98
2019-06-10T01:25:15.513Z,3.10
2019-06-10T01:27:44.821Z,3.17
2019-06-10T01:30:21.743Z,2.52
2019-06-10T01:32:45.089Z,3.02
2019-06-10T01:35:15.736Z,3.95
2019-06-10T01:37:45.456Z,2.77
2019-06-10T01:40:17.651Z,2.90
2019-06-10T01:42:45.832Z,3.15
2019-06-10T01:45:16.120Z,2.65
2019-06-10T01:47:46.104Z,2.77
2019-06-10T01:50:17.343Z,2.47
2019-06-10T01:52:46.569Z,2.37
2019-06-10T01:55:17.008Z,2.33
2019-06-10T01:57:46.835Z,2.90
2019-06-10T02:00:21.211Z,3.22
2019-06-10T02:02:47.909Z,3.12
2019-06-10T02:05:19.406Z,2.92
2019-06-10T02:07:48.236Z,3.10
2019-06-10T02:10:18.781Z,2.72
2019-06-10T02:12:50.738Z,2.90
2019-06-10T02:15:22.263Z,2.45
2019-06-10T02:17:51.019Z,2.40
2019-06-10T02:20:23.821Z,2.62
2019-06-10T02:22:51.694Z,2.50
2019-06-10T02:25:21.709Z,2.40
2019-06-10T02:27:51.967Z,2.98
2019-06-10T02:30:35.773Z,2.52
2019-06-10T02:32:52.544Z,2.55
2019-06-10T02:35:30.446Z,2.77
2019-06-10T02:37:54.044Z,2.45
2019-06-10T02:40:31.695Z,2.17
2019-06-10T02:42:56.579Z,3.17
2019-06-10T02:45:32.715Z,3.00
2019-06-10T02:47:56.849Z,2.65
2019-06-10T02:50:44.338Z,2.45
2019-06-10T02:53:15.872Z,1.75
2019-06-10T02:55:44.788Z,3.00
2019-06-10T02:58:15.611Z,2.33
2019-06-10T03:00:48.840Z,2.20
2019-06-10T03:03:22.974Z,2.17
2019-06-10T03:05:47.065Z,2.35
2019-06-10T03:08:18.329Z,2.67
2019-06-10T03:10:47.350Z,2.47
2019-06-10T03:13:17.633Z,2.50
2019-06-10T03:15:48.527Z,3.10
2019-06-10T03:18:17.873Z,2.60
2019-06-10T03:20:47.176Z,2.42
2019-06-10T03:23:16.534Z,1.80
2019-06-10T03:25:47.430Z,3.42
2019-06-10T03:28:17.411Z,2.62
2019-06-10T03:30:53.688Z,2.30
2019-06-10T03:33:19.674Z,2.75
2019-06-10T03:35:48.647Z,3.17
2019-06-10T03:38:18.262Z,2.77
2019-06-10T03:40:47.677Z,2.80
2019-06-10T03:43:17.134Z,2.70
2019-06-10T03:45:46.536Z,3.58
2019-06-10T03:48:17.065Z,2.90
2019-06-10T03:50:46.802Z,2.80
2019-06-10T03:53:17.153Z,2.35
2019-06-10T03:55:46.901Z,2.47
2019-06-10T03:58:17.480Z,3.10
2019-06-10T04:00:47.053Z,3.30
2019-06-10T04:03:17.331Z,2.55
2019-06-10T04:05:46.797Z,4.15
2019-06-10T04:08:17.370Z,3.05
2019-06-10T04:10:46.888Z,2.00
2019-06-10T04:13:17.287Z,2.58
2019-06-10T04:15:46.781Z,2.15
2019-06-10T04:18:16.113Z,2.40
2019-06-10T04:20:45.409Z,2.55
2019-06-10T04:23:14.957Z,3.17
2019-06-10T04:25:44.312Z,2.33
2019-06-10T04:28:13.613Z,2.75
2019-06-10T04:30:43.364Z,3.02
2019-06-10T04:33:12.897Z,1.80
2019-06-10T04:35:42.764Z,2.65
2019-06-10T04:38:13.080Z,2.90
2019-06-10T04:40:43.095Z,2.35
2019-06-10T04:43:12.542Z,2.40
2019-06-10T04:45:42.984Z,2.33
2019-06-10T04:48:12.631Z,2.72
2019-06-10T04:50:45.979Z,3.00
2019-06-10T04:53:13.014Z,2.25
2019-06-10T04:55:43.117Z,2.10
2019-06-10T04:58:12.988Z,2.45
2019-06-10T05:00:42.947Z,2.27
2019-06-10T05:03:13.240Z,2.67
2019-06-10T05:05:43.074Z,1.95
2019-06-10T05:08:13.597Z,3.70
2019-06-10T05:10:43.397Z,3.83
2019-06-10T05:13:12.694Z,2.37
2019-06-10T05:15:43.367Z,3.60
2019-06-10T05:18:13.956Z,2.35
2019-06-10T05:20:52.081Z,1.60
2019-06-10T05:23:14.442Z,2.62
2019-06-10T05:25:43.753Z,2.12
2019-06-10T05:28:13.054Z,2.67
2019-06-10T05:30:42.722Z,2.90
2019-06-10T05:33:13.463Z,2.10
2019-06-10T05:35:43.105Z,2.20
2019-06-10T05:38:12.964Z,1.70
2019-06-10T05:40:42.807Z,1.82
2019-06-10T05:43:13.038Z,2.10
2019-06-10T05:45:42.738Z,1.98
2019-06-10T05:48:16.233Z,2.40
2019-06-10T05:51:00.087Z,2.58
2019-06-10T05:53:22.586Z,2.52
2019-06-10T05:55:52.986Z,1.98
2019-06-10T05:58:23.528Z,2.02
2019-06-10T06:00:53.226Z,2.00
2019-06-10T06:03:24.150Z,2.12
2019-06-10T06:05:54.776Z,1.67
2019-06-10T06:08:25.106Z,2.17
2019-06-10T06:10:54.514Z,2.40
2019-06-10T06:13:23.832Z,2.25
2019-06-10T06:15:53.165Z,3.30
2019-06-10T06:18:22.672Z,1.60
2019-06-10T06:20:52.617Z,2.33
2019-06-10T06:23:23.124Z,1.82
2019-06-10T06:25:53.270Z,3.00
2019-06-10T06:28:23.020Z,1.75
2019-06-10T06:30:52.832Z,2.25
2019-06-10T06:33:22.460Z,2.40
2019-06-10T06:35:52.962Z,2.60
2019-06-10T06:38:22.478Z,2.50
2019-06-10T06:40:53.749Z,1.90
2019-06-10T06:43:23.124Z,2.47
2019-06-10T06:45:53.143Z,3.02
2019-06-10T06:48:22.804Z,2.90
2019-06-10T06:51:04.062Z,2.40
2019-06-10T06:53:32.397Z,2.98
2019-06-10T06:55:56.011Z,2.90
2019-06-10T06:58:25.007Z,2.50
2019-06-10T07:01:05.207Z,2.00
2019-06-10T07:03:25.285Z,2.17
2019-06-10T07:05:54.632Z,2.58
2019-06-10T07:08:25.397Z,1.82
2019-06-10T07:10:55.396Z,2.58
2019-06-10T07:13:26.233Z,2.33
2019-06-10T07:15:55.616Z,2.35
2019-06-10T07:18:24.998Z,3.35
2019-06-10T07:20:54.302Z,1.60
2019-06-10T07:23:23.654Z,2.65
2019-06-10T07:25:53.284Z,1.92
2019-06-10T07:28:23.073Z,1.95
2019-06-10T07:30:55.242Z,1.85
2019-06-10T07:33:23.621Z,1.85
2019-06-10T07:35:56.419Z,2.42
2019-06-10T07:38:26.231Z,2.27
2019-06-10T07:40:54.841Z,1.77
2019-06-10T07:43:24.198Z,1.30
2019-06-10T07:45:53.538Z,2.25
2019-06-10T07:48:22.822Z,2.27
2019-06-10T07:50:53.205Z,2.85
2019-06-10T07:53:22.786Z,1.85
2019-06-10T07:55:53.560Z,2.67
2019-06-10T07:58:23.253Z,2.37
2019-06-10T08:00:53.486Z,2.02
2019-06-10T08:03:23.120Z,2.33
2019-06-10T08:05:52.680Z,2.30
2019-06-10T08:08:23.522Z,2.30
2019-06-10T08:10:53.109Z,1.72
2019-06-10T08:13:22.694Z,2.65
2019-06-10T08:15:53.281Z,1.82
2019-06-10T08:18:22.730Z,2.15
2019-06-10T08:20:52.846Z,2.08
2019-06-10T08:23:23.590Z,1.70
2019-06-10T08:25:57.617Z,1.70
2019-06-10T08:28:25.224Z,2.27
2019-06-10T08:30:54.585Z,1.85
2019-06-10T08:33:23.898Z,2.55
2019-06-10T08:35:59.527Z,2.40
2019-06-10T08:38:25.549Z,2.90
2019-06-10T08:40:54.912Z,3.25
2019-06-10T08:43:24.215Z,2.95
2019-06-10T08:45:53.549Z,1.92
2019-06-10T08:48:23.084Z,2.20
2019-06-10T08:50:53.466Z,2.52
2019-06-10T08:53:22.992Z,2.37
2019-06-10T08:55:53.466Z,2.40
2019-06-10T08:58:24.462Z,2.12
2019-06-10T09:00:53.998Z,2.52
2019-06-10T09:03:23.584Z,1.55
2019-06-10T09:05:55.213Z,2.47
2019-06-10T09:08:25.065Z,2.95
2019-06-10T09:10:55.402Z,1.95
2019-06-10T09:13:24.927Z,2.80
2019-06-10T09:16:10.085Z,2.20
2019-06-10T09:18:26.188Z,2.80
2019-06-10T09:20:56.291Z,2.98
2019-06-10T09:23:25.888Z,2.37
2019-06-10T09:25:57.824Z,2.27
2019-06-10T09:28:29.100Z,3.08
2019-06-10T09:30:59.660Z,2.50
2019-06-10T09:33:29.568Z,3.55
2019-06-10T09:35:58.881Z,2.75
2019-06-10T09:38:28.239Z,3.08
2019-06-10T09:41:01.635Z,3.10
2019-06-10T09:43:28.509Z,3.80
2019-06-10T09:45:57.833Z,3.00
2019-06-10T09:48:27.239Z,3.40
2019-06-10T09:50:58.750Z,3.33
2019-06-10T09:53:41.414Z,3.15
2019-06-10T09:55:58.567Z,3.30
2019-06-10T09:58:27.902Z,3.83
2019-06-10T10:00:58.344Z,4.58
2019-06-10T10:03:27.950Z,3.37
2019-06-10T10:06:10.083Z,4.00
2019-06-10T10:08:29.117Z,5.05
2019-06-10T10:10:59.234Z,4.15
2019-06-10T10:13:28.823Z,5.42
2019-06-10T10:15:58.509Z,4.85
2019-06-10T10:18:27.825Z,4.97
2019-06-10T10:21:00.296Z,5.40
2019-06-10T10:23:28.125Z,5.35
2019-06-10T10:25:57.436Z,5.58
2019-06-10T10:28:26.755Z,5.03
2019-06-10T10:30:58.107Z,5.53
2019-06-10T10:33:29.908Z,5.25
2019-06-10T10:35:57.975Z,4.90
2019-06-10T10:38:27.300Z,4.15
2019-06-10T10:40:59.105Z,4.97
2019-06-10T10:43:33.147Z,4.87
2019-06-10T10:46:00.551Z,5.17
2019-06-10T10:48:29.629Z,5.17
2019-06-10T10:50:58.938Z,4.55
2019-06-10T10:53:28.252Z,6.78
2019-06-10T10:55:57.557Z,5.72
2019-06-10T10:58:26.926Z,4.85
2019-06-10T11:00:57.848Z,4.35
2019-06-10T11:03:27.176Z,6.83
2019-06-10T11:06:00.694Z,6.70
2019-06-10T11:08:27.436Z,5.25
2019-06-10T11:11:01.115Z,5.22
2019-06-10T11:13:32.696Z,5.62
2019-06-10T11:16:03.542Z,5.60
2019-06-10T11:18:33.935Z,5.33
2019-06-10T11:21:05.159Z,7.80
2019-06-10T11:23:34.734Z,5.22
2019-06-10T11:26:04.779Z,5.40
2019-06-10T11:28:34.094Z,6.25
2019-06-10T11:31:04.024Z,5.97
2019-06-10T11:33:34.051Z,6.90
2019-06-10T11:36:03.676Z,7.30
2019-06-10T11:38:34.072Z,5.80
2019-06-10T11:41:04.248Z,6.55
2019-06-10T11:43:33.573Z,7.25
2019-06-10T11:46:07.806Z,6.50
2019-06-10T11:48:35.744Z,6.55
2019-06-10T11:51:05.151Z,7.33
2019-06-10T11:53:34.695Z,6.10
2019-06-10T11:56:04.965Z,6.78
2019-06-10T11:58:34.323Z,5.85
2019-06-10T12:01:04.248Z,4.80
2019-06-10T12:03:35.006Z,6.92
2019-06-10T12:06:05.343Z,7.20
2019-06-10T12:08:35.059Z,7.00
2019-06-10T12:11:04.370Z,6.80
2019-06-10T12:13:34.662Z,6.67
2019-06-10T12:17:14.762Z,6.37
2019-06-10T12:18:36.360Z,6.78
2019-06-10T12:21:05.712Z,5.97
2019-06-10T12:23:35.038Z,7.87
2019-06-10T12:26:05.226Z,6.58
2019-06-10T12:28:34.881Z,6.65
2019-06-10T12:31:07.156Z,7.50
2019-06-10T12:33:35.369Z,8.08
2019-06-10T12:36:07.158Z,7.47
2019-06-10T12:38:36.033Z,7.90
2019-06-10T12:41:09.711Z,6.97
2019-06-10T12:43:36.294Z,6.75
2019-06-10T12:46:05.996Z,7.15
2019-06-10T12:48:35.326Z,8.38
2019-06-10T12:51:08.845Z,6.95
2019-06-10T12:53:36.929Z,6.28
2019-06-10T12:56:10.685Z,6.72
2019-06-10T12:58:37.184Z,6.72
2019-06-10T13:01:08.058Z,6.62
2019-06-10T13:03:38.752Z,8.40
2019-06-10T13:06:09.804Z,6.22
2019-06-10T13:08:38.988Z,6.95
2019-06-10T13:11:08.441Z,7.92
2019-06-10T13:13:37.745Z,6.78
2019-06-10T13:16:09.199Z,6.17
2019-06-10T13:18:38.025Z,7.33
2019-06-10T13:21:13.382Z,7.65
2019-06-10T13:23:38.320Z,8.50
2019-06-10T13:26:12.552Z,7.60
2019-06-10T13:28:38.625Z,9.40
2019-06-10T13:31:10.065Z,8.10
2019-06-10T13:33:39.092Z,7.47
2019-06-10T13:36:08.765Z,7.40
2019-06-10T13:38:38.223Z,9.48
2019-06-10T13:41:09.584Z,6.87
2019-06-10T13:43:38.890Z,6.87
2019-06-10T13:46:10.489Z,7.92
2019-06-10T13:48:39.165Z,6.20
2019-06-10T13:51:10.999Z,7.35
2019-06-10T13:53:39.441Z,8.20
2019-06-10T13:56:37.041Z,7.05
2019-06-10T13:58:45.073Z,8.70
2019-06-10T14:01:20.504Z,8.63
2019-06-10T14:03:43.266Z,8.93
2019-06-10T14:06:28.393Z,5.55
2019-06-10T14:08:43.814Z,7.20
2019-06-10T14:11:14.264Z,7.97
2019-06-10T14:13:44.234Z,6.60
2019-06-10T14:16:14.887Z,7.15
2019-06-10T14:18:44.529Z,8.25
2019-06-10T14:21:18.276Z,7.53
2019-06-10T14:23:44.852Z,7.22
2019-06-10T14:26:17.162Z,7.40
2019-06-10T14:28:47.408Z,6.87
2019-06-10T14:31:38.668Z,6.42
2019-06-10T14:33:47.682Z,7.12
2019-06-10T14:36:17.103Z,7.50
2019-06-10T14:38:46.453Z,6.70
2019-06-10T14:41:15.906Z,7.12
2019-06-10T14:43:45.282Z,8.30
2019-06-10T14:46:17.188Z,6.80
2019-06-10T14:48:45.586Z,8.25
2019-06-10T14:51:16.858Z,6.75
2019-06-10T14:53:45.863Z,6.60
2019-06-10T14:56:18.977Z,8.18
2019-06-10T14:58:46.114Z,7.90
2019-06-10T15:01:24.419Z,6.50
2019-06-10T15:03:46.378Z,8.15
2019-06-10T15:06:15.716Z,7.50
2019-06-10T15:08:45.045Z,6.90
2019-06-10T15:11:15.774Z,8.00
2019-06-10T15:13:45.525Z,8.70
2019-06-10T15:16:14.828Z,7.28
2019-06-10T15:18:44.176Z,8.20
2019-06-10T15:21:13.557Z,8.95
2019-06-10T15:23:43.075Z,8.25
2019-06-10T15:26:14.391Z,6.87
2019-06-10T15:28:43.521Z,8.15
2019-06-10T15:31:14.586Z,6.80
2019-06-10T15:33:43.785Z,8.90
2019-06-10T15:36:13.249Z,6.60
2019-06-10T15:38:44.019Z,8.40
2019-06-10T15:41:17.856Z,7.10
2019-06-10T15:43:44.845Z,8.45
2019-06-10T15:46:15.867Z,6.80
2019-06-10T15:48:45.175Z,7.78
2019-06-10T15:51:17.456Z,7.80
2019-06-10T15:53:45.553Z,8.40
2019-06-10T15:56:27.019Z,7.03
2019-06-10T15:58:47.320Z,7.00
2019-06-10T16:01:20.309Z,8.60
2019-06-10T16:03:47.615Z,7.83
2019-06-10T16:06:18.118Z,8.10
2019-06-10T16:08:47.477Z,7.63
2019-06-10T16:11:18.866Z,9.67
2019-06-10T16:13:47.734Z,6.87
2019-06-10T16:16:17.308Z,6.03
2019-06-10T16:18:46.604Z,9.50
2019-06-10T16:21:17.434Z,9.40
2019-06-10T16:23:46.892Z,8.27
2019-06-10T16:26:16.298Z,6.67
2019-06-10T16:28:45.710Z,8.03
2019-06-10T16:31:16.615Z,8.67
2019-06-10T16:33:49.219Z,7.77
2019-06-10T16:36:17.203Z,9.07
2019-06-10T16:38:46.861Z,7.63
2019-06-10T16:41:17.439Z,9.50
2019-06-10T16:43:47.926Z,6.90
2019-06-10T16:46:18.203Z,7.47
2019-06-10T16:48:47.785Z,7.40
2019-06-10T16:51:17.439Z,6.90
2019-06-10T16:53:48.022Z,6.50
2019-06-10T16:56:17.749Z,7.17
2019-06-10T16:58:47.530Z,7.57
2019-06-10T17:01:18.243Z,7.90
2019-06-10T17:03:47.892Z,6.20
2019-06-10T17:06:17.472Z,7.90
2019-06-10T17:08:47.006Z,8.00
2019-06-10T17:11:16.336Z,8.23
2019-06-10T17:13:45.653Z,7.10
2019-06-10T17:16:14.992Z,6.80
2019-06-10T17:18:44.298Z,6.23
2019-06-10T17:21:13.693Z,6.65
2019-06-10T17:23:43.393Z,8.50
2019-06-10T17:26:13.053Z,7.10
2019-06-10T17:28:42.952Z,5.80
2019-06-10T17:31:12.591Z,5.97
2019-06-10T17:33:42.687Z,6.42
2019-06-10T17:36:12.711Z,5.70
2019-06-10T17:38:42.977Z,6.97
2019-06-10T17:41:15.730Z,7.37
2019-06-10T17:43:45.067Z,6.60
2019-06-10T17:46:15.954Z,8.17
2019-06-10T17:48:45.317Z,8.20
2019-06-10T17:51:14.625Z,8.63
2019-06-10T17:53:44.435Z,7.83
2019-06-10T17:56:13.736Z,6.23
2019-06-10T17:58:52.595Z,6.83
2019-06-10T18:01:15.049Z,8.10
2019-06-10T18:03:44.473Z,6.80
2019-06-10T18:06:13.840Z,5.58
2019-06-10T18:08:43.632Z,7.73
2019-06-10T18:11:13.367Z,8.70
2019-06-10T18:13:43.155Z,8.47
2019-06-10T18:16:13.084Z,8.20
2019-06-10T18:18:43.817Z,6.67
2019-06-10T18:21:13.146Z,7.83
2019-06-10T18:23:43.490Z,6.28
2019-06-10T18:26:13.229Z,7.47
2019-06-10T18:29:00.223Z,7.37
2019-06-10T18:31:13.538Z,8.80
2019-06-10T18:33:42.880Z,8.60
2019-06-10T18:36:12.300Z,6.90
2019-06-10T18:38:43.303Z,7.17
2019-06-10T18:41:12.925Z,7.20
2019-06-10T18:43:43.996Z,7.97
2019-06-10T18:46:13.361Z,7.58
2019-06-10T18:48:43.114Z,8.30
2019-06-10T18:51:12.886Z,8.03
2019-06-10T18:53:42.745Z,7.80
2019-06-10T18:56:13.015Z,6.83
2019-06-10T18:58:42.642Z,8.48
2019-06-10T19:01:12.586Z,8.00
2019-06-10T19:03:43.050Z,7.62
2019-06-10T19:06:13.718Z,8.75
2019-06-10T19:08:44.259Z,8.65
2019-06-10T19:11:14.135Z,6.62
2019-06-10T19:13:43.759Z,8.03
2019-06-10T19:16:13.288Z,7.33
2019-06-10T19:18:43.351Z,8.05
2019-06-10T19:21:13.280Z,8.75
2019-06-10T19:23:43.889Z,8.38
2019-06-10T19:26:13.975Z,9.55
2019-06-10T19:28:45.104Z,7.67
2019-06-10T19:31:14.262Z,7.95
2019-06-10T19:33:45.152Z,7.40
2019-06-10T19:36:14.591Z,9.05
2019-06-10T19:38:44.383Z,8.90
2019-06-10T19:41:14.220Z,8.33
2019-06-10T19:43:45.510Z,7.60
2019-06-10T19:46:14.961Z,10.03
2019-06-10T19:48:55.388Z,9.58
2019-06-10T19:51:15.330Z,8.98
2019-06-10T19:53:45.126Z,8.08
2019-06-10T19:56:14.619Z,6.40
2019-06-10T19:58:46.344Z,7.47
2019-06-10T20:01:15.281Z,7.25
2019-06-10T20:03:46.468Z,8.03
2019-06-10T20:06:15.661Z,7.97
2019-06-10T20:08:46.187Z,9.28
2019-06-10T20:11:15.921Z,8.65
2019-06-10T20:13:46.772Z,9.30
2019-06-10T20:16:16.429Z,7.20
2019-06-10T20:18:47.830Z,8.65
2019-06-10T20:21:16.806Z,8.85
2019-06-10T20:23:46.139Z,7.67
2019-06-10T20:26:15.454Z,9.30
2019-06-10T20:28:46.401Z,7.78
2019-06-10T20:31:16.943Z,8.83
2019-06-10T20:33:46.277Z,7.80
2019-06-10T20:36:22.032Z,9.60
2019-06-10T20:38:48.687Z,8.28
2019-06-10T20:41:17.708Z,9.88
2019-06-10T20:43:47.391Z,9.20
2019-06-10T20:46:16.870Z,9.40
2019-06-10T20:48:49.427Z,10.48
2019-06-10T20:51:17.160Z,8.83
2019-06-10T20:53:47.963Z,9.03
2019-06-10T20:56:20.216Z,9.20
2019-06-10T20:58:49.722Z,8.20
2019-06-10T21:01:19.458Z,7.40
2019-06-10T21:03:49.871Z,8.38
2019-06-10T21:06:22.483Z,6.75
2019-06-10T21:08:55.087Z,8.33
2019-06-10T21:11:24.401Z,9.78
2019-06-10T21:13:55.716Z,6.87
2019-06-10T21:16:24.743Z,9.48
2019-06-10T21:18:55.521Z,8.43
2019-06-10T21:21:25.103Z,7.30
2019-06-10T21:23:54.399Z,8.03
2019-06-10T21:26:23.926Z,7.65
2019-06-10T21:28:55.102Z,7.70
2019-06-10T21:31:25.657Z,7.45
2019-06-10T21:33:56.003Z,8.48
2019-06-10T21:36:25.608Z,8.43
2019-06-10T21:38:55.939Z,8.15
2019-06-10T21:41:25.467Z,8.13
2019-06-10T21:43:59.315Z,9.63
2019-06-10T21:46:26.871Z,10.32
2019-06-10T21:48:56.985Z,10.13
2019-06-10T21:51:26.301Z,7.92
2019-06-10T21:53:55.676Z,7.28
2019-06-10T21:56:25.002Z,8.03
2019-06-10T21:58:55.630Z,9.80
2019-06-10T22:01:25.255Z,9.78
2019-06-10T22:04:00.568Z,8.88
2019-06-10T22:06:25.581Z,9.18
2019-06-10T22:08:56.501Z,9.28
2019-06-10T22:11:25.837Z,7.97
2019-06-10T22:13:56.325Z,8.05
2019-06-10T22:16:26.032Z,7.25
2019-06-10T22:18:55.405Z,10.10
2019-06-10T22:21:24.709Z,9.40
2019-06-10T22:23:55.673Z,8.05
2019-06-10T22:26:25.012Z,8.15
2019-06-10T22:28:56.241Z,8.28
2019-06-10T22:31:26.486Z,8.00
2019-06-10T22:33:57.615Z,8.88
2019-06-10T22:36:27.262Z,8.95
2019-06-10T22:38:59.010Z,9.08
2019-06-10T22:41:27.541Z,9.25
2019-06-10T22:43:59.819Z,9.03
2019-06-10T22:46:29.370Z,9.28
2019-06-10T22:48:59.468Z,7.47
2019-06-10T22:51:29.138Z,9.30
2019-06-10T22:54:00.003Z,8.95
2019-06-10T22:56:30.696Z,9.05
2019-06-10T22:59:03.346Z,9.03
2019-06-10T23:01:37.841Z,9.23
2019-06-10T23:04:04.213Z,8.85
2019-06-10T23:06:34.071Z,8.88
2019-06-10T23:09:04.410Z,7.05
2019-06-10T23:11:34.437Z,7.67
2019-06-10T23:14:03.741Z,7.55
2019-06-10T23:16:33.364Z,7.40
2019-06-10T23:19:03.114Z,9.63
2019-06-10T23:21:32.450Z,7.97
2019-06-10T23:24:03.151Z,7.28
2019-06-10T23:26:33.265Z,8.43
2019-06-10T23:29:03.306Z,7.20
2019-06-10T23:31:48.785Z,9.03
2019-06-10T23:34:05.118Z,9.08
2019-06-10T23:36:36.984Z,7.42
2019-06-10T23:39:06.458Z,8.58
2019-06-10T23:41:35.756Z,9.20
2019-06-10T23:44:05.093Z,8.28
2019-06-10T23:46:35.429Z,7.72
2019-06-10T23:49:04.851Z,8.05
2019-06-10T23:51:34.210Z,7.47
2019-06-10T23:54:06.055Z,8.25
2019-06-10T23:56:34.462Z,8.40
2019-06-10T23:59:04.803Z,6.97
